createdAt,value
2023-12-21T00:00:16.635Z,1.77
2023-12-21T00:02:49.295Z,1.85
2023-12-21T00:05:17.770Z,1.10
2023-12-21T00:07:45.134Z,1.42
2023-12-21T00:10:12.656Z,2.05
2023-12-21T00:12:42.253Z,2.13
2023-12-21T00:15:12.653Z,1.45
2023-12-21T00:17:39.773Z,2.47
2023-12-21T00:20:07.333Z,1.90
2023-12-21T00:22:35.622Z,1.95
2023-12-21T00:25:02.677Z,1.25
2023-12-21T00:27:29.640Z,1.90
2023-12-21T00:29:59.628Z,1.98
2023-12-21T00:35:25.350Z,1.90
2023-12-21T00:37:59.761Z,2.20
2023-12-21T00:40:29.264Z,1.77
2023-12-21T00:42:59.228Z,1.95
2023-12-21T00:45:26.256Z,2.30
2023-12-21T00:47:53.319Z,2.15
2023-12-21T00:50:20.640Z,1.80
2023-12-21T00:52:47.767Z,2.03
2023-12-21T00:55:23.913Z,1.25
2023-12-21T00:57:50.941Z,1.92
2023-12-21T01:00:21.789Z,1.75
2023-12-21T01:02:51.367Z,1.30
2023-12-21T01:05:23.659Z,1.90
2023-12-21T01:07:53.042Z,2.42
2023-12-21T01:10:23.166Z,2.15
2023-12-21T01:12:50.099Z,2.20
2023-12-21T01:15:17.635Z,1.60
2023-12-21T01:17:47.631Z,1.92
2023-12-21T01:20:23.905Z,1.95
2023-12-21T01:22:51.139Z,2.25
2023-12-21T01:25:54.358Z,1.52
2023-12-21T01:28:25.465Z,1.90
2023-12-21T01:30:56.496Z,1.70
2023-12-21T01:33:23.639Z,1.90
2023-12-21T01:35:55.583Z,2.22
2023-12-21T01:38:22.349Z,2.00
2023-12-21T01:40:49.314Z,2.17
2023-12-21T01:43:22.529Z,2.30
2023-12-21T01:45:54.572Z,1.80
2023-12-21T01:48:21.591Z,2.05
2023-12-21T01:50:54.490Z,1.85
2023-12-21T01:53:23.484Z,1.73
2023-12-21T01:55:50.845Z,1.70
2023-12-21T01:58:18.593Z,1.05
2023-12-21T02:00:45.732Z,2.28
2023-12-21T02:03:14.114Z,1.45
2023-12-21T02:05:40.782Z,1.88
2023-12-21T02:08:07.909Z,2.10
2023-12-21T02:10:41.085Z,2.45
2023-12-21T02:13:08.505Z,1.15
2023-12-21T02:15:35.453Z,1.75
2023-12-21T02:18:04.448Z,1.17
2023-12-21T02:20:33.507Z,1.67
2023-12-21T02:23:05.157Z,2.13
2023-12-21T02:25:45.281Z,2.30
2023-12-21T02:28:12.326Z,1.88
2023-12-21T02:30:39.524Z,2.03
2023-12-21T02:33:09.439Z,2.08
2023-12-21T02:35:38.432Z,1.88
2023-12-21T02:38:08.192Z,1.80
2023-12-21T02:40:37.488Z,1.75
2023-12-21T02:43:06.598Z,1.80
2023-12-21T02:45:33.460Z,1.48
2023-12-21T02:48:00.904Z,1.95
2023-12-21T02:50:27.886Z,1.70
2023-12-21T02:53:04.152Z,2.15
2023-12-21T02:55:36.938Z,1.60
2023-12-21T02:58:05.383Z,2.22
2023-12-21T03:00:32.469Z,1.40
2023-12-21T03:02:59.368Z,2.00
2023-12-21T03:05:26.960Z,1.70
2023-12-21T03:07:58.134Z,1.77
2023-12-21T03:10:25.784Z,2.28
2023-12-21T03:12:55.488Z,1.65
2023-12-21T03:15:23.993Z,2.47
2023-12-21T03:17:50.876Z,2.05
2023-12-21T03:20:22.007Z,1.90
2023-12-21T03:22:49.986Z,1.98
2023-12-21T03:25:16.892Z,2.00
2023-12-21T03:27:43.785Z,1.77
2023-12-21T03:36:12.426Z,1.40
2023-12-21T03:38:42.289Z,2.03
2023-12-21T03:41:09.548Z,1.45
2023-12-21T03:43:36.461Z,2.30
2023-12-21T03:46:04.338Z,2.30
2023-12-21T03:48:35.887Z,1.60
2023-12-21T03:51:06.260Z,2.13
2023-12-21T03:53:33.350Z,2.28
2023-12-21T03:56:01.254Z,1.48
2023-12-21T03:58:28.159Z,1.70
2023-12-21T04:00:57.544Z,1.83
2023-12-21T04:03:24.677Z,2.00
2023-12-21T04:05:54.853Z,1.40
2023-12-21T04:08:24.809Z,1.00
2023-12-21T04:10:51.921Z,1.20
2023-12-21T04:13:19.198Z,1.40
2023-12-21T04:15:45.881Z,1.20
2023-12-21T04:18:13.384Z,2.58
2023-12-21T04:20:41.254Z,1.23
2023-12-21T04:23:10.147Z,1.67
2023-12-21T04:25:37.622Z,1.55
2023-12-21T04:28:09.641Z,1.80
2023-12-21T04:31:09.533Z,1.27
2023-12-21T04:33:40.614Z,1.27
2023-12-21T04:36:12.227Z,1.17
2023-12-21T04:38:42.964Z,1.60
2023-12-21T04:41:27.439Z,1.15
2023-12-21T04:43:54.571Z,2.10
2023-12-21T04:46:21.549Z,1.48
2023-12-21T04:48:48.430Z,1.80
2023-12-21T04:51:16.427Z,1.50
2023-12-21T04:57:04.666Z,1.70
2023-12-21T04:59:34.618Z,1.52
2023-12-21T05:02:02.214Z,1.90
2023-12-21T05:04:33.144Z,2.13
2023-12-21T05:07:04.171Z,1.95
2023-12-21T05:09:47.707Z,1.60
2023-12-21T05:12:31.592Z,1.45
2023-12-21T05:14:58.268Z,0.98
2023-12-21T05:17:25.248Z,1.80
2023-12-21T05:20:03.554Z,1.42
2023-12-21T05:22:33.444Z,0.85
2023-12-21T05:25:01.830Z,2.03
2023-12-21T05:27:32.301Z,1.92
2023-12-21T05:29:59.479Z,1.02
2023-12-21T05:32:26.649Z,1.08
2023-12-21T05:34:53.670Z,1.30
2023-12-21T05:37:20.456Z,1.63
2023-12-21T05:39:49.482Z,1.80
2023-12-21T05:42:17.011Z,1.17
2023-12-21T05:44:45.665Z,1.42
2023-12-21T05:47:36.389Z,1.80
2023-12-21T05:50:03.606Z,1.13
2023-12-21T05:52:31.448Z,1.17
2023-12-21T05:55:05.574Z,1.60
2023-12-21T05:57:33.225Z,1.42
2023-12-21T06:00:02.091Z,1.00
2023-12-21T06:02:32.291Z,1.85
2023-12-21T06:04:59.390Z,1.13
2023-12-21T06:07:26.513Z,1.30
2023-12-21T06:09:53.635Z,1.05
2023-12-21T06:12:24.034Z,1.23
2023-12-21T06:14:53.313Z,1.65
2023-12-21T06:17:24.303Z,1.77
2023-12-21T06:19:51.437Z,1.52
2023-12-21T06:22:18.315Z,1.40
2023-12-21T06:24:47.301Z,2.20
2023-12-21T06:27:15.294Z,1.77
2023-12-21T06:29:45.185Z,1.38
2023-12-21T06:32:13.242Z,1.77
2023-12-21T06:37:08.781Z,1.33
2023-12-21T06:39:35.717Z,1.10
2023-12-21T06:42:21.970Z,1.58
2023-12-21T06:44:48.714Z,1.23
2023-12-21T06:47:15.600Z,1.60
2023-12-21T06:49:42.376Z,1.38
2023-12-21T06:52:10.672Z,1.30
2023-12-21T06:54:37.631Z,2.05
2023-12-21T06:57:04.626Z,1.52
2023-12-21T06:59:31.606Z,2.38
2023-12-21T07:01:58.729Z,1.65
2023-12-21T07:04:25.667Z,1.33
2023-12-21T07:06:59.817Z,1.92
2023-12-21T07:09:30.176Z,1.42
2023-12-21T07:11:57.354Z,2.20
2023-12-21T07:14:25.200Z,1.77
2023-12-21T07:16:52.334Z,2.40
2023-12-21T07:19:19.287Z,3.28
2023-12-21T07:21:46.539Z,1.27
2023-12-21T07:24:13.182Z,1.20
2023-12-21T07:26:41.260Z,1.55
2023-12-21T07:36:30.357Z,1.70
2023-12-21T07:38:57.999Z,1.88
2023-12-21T07:41:26.483Z,2.60
2023-12-21T07:43:54.801Z,1.10
2023-12-21T07:46:22.868Z,1.88
2023-12-21T07:51:16.787Z,1.63
2023-12-21T07:53:44.392Z,1.33
2023-12-21T07:56:11.526Z,1.50
2023-12-21T07:58:40.717Z,1.58
2023-12-21T08:01:09.421Z,1.83
2023-12-21T08:03:36.316Z,1.63
2023-12-21T08:06:04.715Z,1.15
2023-12-21T08:08:33.669Z,2.80
2023-12-21T08:11:02.670Z,1.40
2023-12-21T08:13:31.793Z,1.88
2023-12-21T08:16:00.851Z,1.05
2023-12-21T08:18:29.023Z,1.25
2023-12-21T08:20:55.945Z,1.35
2023-12-21T08:23:23.086Z,2.33
2023-12-21T08:25:50.000Z,2.08
2023-12-21T08:28:17.417Z,2.00
2023-12-21T08:33:12.176Z,1.63
2023-12-21T08:35:43.950Z,1.48
2023-12-21T08:38:11.412Z,2.58
2023-12-21T08:40:38.221Z,1.48
2023-12-21T08:43:04.933Z,2.47
2023-12-21T08:45:33.282Z,1.92
2023-12-21T08:48:00.413Z,3.00
2023-12-21T08:50:27.928Z,1.92
2023-12-21T08:52:56.231Z,1.55
2023-12-21T08:55:23.239Z,2.38
2023-12-21T08:57:50.317Z,2.28
2023-12-21T09:00:18.457Z,1.58
2023-12-21T09:02:45.304Z,1.60
2023-12-21T09:05:15.583Z,1.77
2023-12-21T09:07:42.893Z,1.00
2023-12-21T09:10:13.823Z,0.57
2023-12-21T09:12:41.129Z,1.65
2023-12-21T09:15:12.348Z,1.63
2023-12-21T09:17:39.262Z,1.73
2023-12-21T09:20:06.752Z,1.77
2023-12-21T09:22:34.064Z,1.80
2023-12-21T09:25:04.058Z,2.10
2023-12-21T09:27:35.853Z,1.65
2023-12-21T09:30:03.320Z,2.33
2023-12-21T09:32:30.018Z,2.45
2023-12-21T09:34:57.062Z,1.40
2023-12-21T09:37:25.083Z,1.67
2023-12-21T09:42:19.272Z,2.50
2023-12-21T09:44:50.962Z,1.58
2023-12-21T09:47:21.224Z,1.30
2023-12-21T09:49:52.124Z,2.25
2023-12-21T09:52:21.877Z,1.50
2023-12-21T09:54:50.643Z,1.98
2023-12-21T09:57:17.546Z,1.77
2023-12-21T09:59:44.428Z,1.27
2023-12-21T10:02:16.036Z,2.00
2023-12-21T10:04:43.318Z,2.00
2023-12-21T10:07:12.611Z,2.00
2023-12-21T10:09:39.654Z,2.40
2023-12-21T10:12:08.452Z,1.90
2023-12-21T10:14:35.490Z,1.42
2023-12-21T10:17:02.617Z,1.52
2023-12-21T10:19:31.004Z,1.00
2023-12-21T10:21:58.852Z,2.00
2023-12-21T10:24:27.170Z,1.45
2023-12-21T10:26:54.179Z,1.85
2023-12-21T10:29:21.674Z,1.65
2023-12-21T10:31:51.557Z,2.08
2023-12-21T10:34:19.940Z,1.67
2023-12-21T10:36:49.613Z,1.55
2023-12-21T10:39:16.702Z,1.60
2023-12-21T10:41:46.784Z,1.73
2023-12-21T10:44:21.577Z,2.05
2023-12-21T10:46:49.986Z,1.10
2023-12-21T10:49:17.921Z,2.00
2023-12-21T10:54:18.066Z,2.80
2023-12-21T10:56:49.719Z,1.67
2023-12-21T10:59:21.268Z,1.63
2023-12-21T11:01:48.455Z,1.92
2023-12-21T11:04:17.430Z,2.08
2023-12-21T11:06:45.366Z,2.10
2023-12-21T11:09:19.907Z,1.50
2023-12-21T11:11:47.065Z,2.47
2023-12-21T11:14:14.120Z,1.80
2023-12-21T11:16:47.332Z,2.70
2023-12-21T11:19:16.739Z,1.65
2023-12-21T11:21:44.008Z,1.98
2023-12-21T11:24:20.538Z,1.70
2023-12-21T11:26:49.621Z,1.25
2023-12-21T11:29:22.719Z,1.75
2023-12-21T11:31:49.649Z,2.30
2023-12-21T11:34:18.056Z,1.80
2023-12-21T11:36:50.112Z,1.52
2023-12-21T11:39:19.240Z,2.00
2023-12-21T11:41:51.967Z,1.95
2023-12-21T11:44:21.886Z,2.58
2023-12-21T11:46:59.384Z,1.77
2023-12-21T11:49:34.515Z,2.00
2023-12-21T11:52:05.090Z,1.52
2023-12-21T11:54:31.976Z,2.47
2023-12-21T11:57:12.390Z,1.63
2023-12-21T11:59:39.347Z,1.35
2023-12-21T12:02:07.755Z,1.85
2023-12-21T12:04:34.828Z,2.03
2023-12-21T12:07:03.092Z,2.05
2023-12-21T12:09:30.196Z,2.17
2023-12-21T12:11:57.476Z,1.60
2023-12-21T12:14:29.197Z,2.75
2023-12-21T12:16:56.199Z,3.08
2023-12-21T12:19:28.176Z,1.80
2023-12-21T12:21:55.488Z,2.75
2023-12-21T12:24:23.114Z,2.03
2023-12-21T12:26:50.659Z,1.83
2023-12-21T12:29:20.679Z,2.00
2023-12-21T12:31:50.821Z,2.20
2023-12-21T12:34:18.528Z,2.22
2023-12-21T12:36:45.663Z,2.35
2023-12-21T12:39:12.907Z,2.13
2023-12-21T12:41:39.521Z,2.22
2023-12-21T12:44:10.505Z,1.85
2023-12-21T12:46:41.324Z,2.38
2023-12-21T12:49:13.907Z,2.15
2023-12-21T12:51:41.712Z,1.60
2023-12-21T12:54:10.376Z,2.15
2023-12-21T12:56:46.454Z,2.13
2023-12-21T12:59:13.833Z,2.00
2023-12-21T13:01:41.130Z,2.75
2023-12-21T13:04:10.341Z,2.05
2023-12-21T13:06:38.203Z,2.88
2023-12-21T13:09:16.694Z,2.70
2023-12-21T13:11:44.096Z,2.63
2023-12-21T13:14:16.229Z,2.50
2023-12-21T13:16:43.693Z,2.65
2023-12-21T13:19:16.500Z,3.35
2023-12-21T13:21:45.958Z,3.92
2023-12-21T13:24:13.059Z,3.95
2023-12-21T13:26:40.117Z,3.10
2023-12-21T13:29:09.570Z,2.38
2023-12-21T13:31:37.666Z,3.35
2023-12-21T13:34:07.213Z,3.15
2023-12-21T13:36:38.927Z,3.40
2023-12-21T13:39:06.194Z,2.63
2023-12-21T13:41:33.975Z,3.60
2023-12-21T13:44:01.210Z,3.25
2023-12-21T13:46:28.451Z,3.28
2023-12-21T13:48:56.114Z,3.30
2023-12-21T13:51:23.340Z,3.30
2023-12-21T13:53:51.848Z,3.83
2023-12-21T13:56:18.857Z,3.05
2023-12-21T13:58:46.006Z,3.30
2023-12-21T14:01:15.947Z,2.58
2023-12-21T14:03:43.010Z,3.65
2023-12-21T14:06:11.134Z,3.60
2023-12-21T14:08:38.167Z,2.60
2023-12-21T14:11:08.270Z,4.28
2023-12-21T14:13:37.783Z,3.30
2023-12-21T14:16:05.270Z,2.92
2023-12-21T14:18:34.083Z,3.25
2023-12-21T14:21:03.776Z,3.25
2023-12-21T14:23:30.765Z,4.25
2023-12-21T14:26:01.223Z,3.65
2023-12-21T14:28:32.990Z,3.80
2023-12-21T14:31:03.346Z,4.25
2023-12-21T14:33:30.084Z,3.00
2023-12-21T14:35:57.088Z,3.08
2023-12-21T14:38:23.989Z,4.05
2023-12-21T14:40:50.883Z,5.43
2023-12-21T14:43:18.266Z,4.07
2023-12-21T14:45:46.561Z,5.45
2023-12-21T14:48:18.232Z,4.88
2023-12-21T14:50:45.345Z,4.43
2023-12-21T14:53:12.357Z,3.67
2023-12-21T14:55:42.242Z,3.65
2023-12-21T14:58:10.688Z,4.45
2023-12-21T15:00:37.559Z,5.10
2023-12-21T15:03:06.186Z,3.45
2023-12-21T15:05:33.273Z,4.90
2023-12-21T15:08:01.310Z,4.05
2023-12-21T15:12:55.179Z,2.75
2023-12-21T15:15:25.204Z,3.25
2023-12-21T15:17:52.616Z,2.40
2023-12-21T15:20:21.677Z,4.00
2023-12-21T15:22:53.022Z,3.33
2023-12-21T15:25:42.981Z,3.20
2023-12-21T15:28:21.101Z,3.85
2023-12-21T15:30:48.026Z,4.43
2023-12-21T15:33:15.561Z,2.97
2023-12-21T15:35:44.743Z,4.72
2023-12-21T15:38:11.893Z,2.97
2023-12-21T15:40:39.038Z,3.58
2023-12-21T15:43:06.409Z,3.88
2023-12-21T15:45:33.405Z,4.28
2023-12-21T15:48:00.297Z,3.88
2023-12-21T15:50:27.434Z,2.40
2023-12-21T15:52:57.012Z,3.00
2023-12-21T15:55:24.219Z,4.95
2023-12-21T15:57:51.320Z,4.35
2023-12-21T16:00:20.940Z,5.07
2023-12-21T16:02:50.580Z,4.70
2023-12-21T16:05:17.643Z,4.45
2023-12-21T16:07:45.803Z,3.58
2023-12-21T16:10:14.403Z,3.20
2023-12-21T16:12:46.273Z,3.80
2023-12-21T16:15:13.405Z,4.00
2023-12-21T16:17:40.807Z,3.08
2023-12-21T16:20:08.502Z,4.57
2023-12-21T16:22:35.564Z,2.83
2023-12-21T16:25:03.595Z,3.50
2023-12-21T16:27:32.174Z,2.50
2023-12-21T16:29:59.028Z,3.60
2023-12-21T16:32:28.294Z,3.42
2023-12-21T16:34:55.374Z,3.53
2023-12-21T16:37:22.480Z,4.63
2023-12-21T16:39:49.306Z,3.90
2023-12-21T16:42:16.093Z,2.92
2023-12-21T16:44:44.498Z,3.70
2023-12-21T16:47:11.332Z,3.95
2023-12-21T16:49:38.307Z,2.65
2023-12-21T16:52:08.268Z,3.13
2023-12-21T16:54:35.602Z,1.75
2023-12-21T16:57:02.535Z,2.70
2023-12-21T16:59:29.250Z,3.75
2023-12-21T17:01:58.294Z,4.10
2023-12-21T17:04:25.637Z,3.58
2023-12-21T17:06:52.485Z,3.13
2023-12-21T17:09:19.465Z,3.90
2023-12-21T17:11:48.552Z,1.92
2023-12-21T17:14:15.253Z,2.08
2023-12-21T17:16:46.180Z,1.88
2023-12-21T17:19:14.987Z,2.50
2023-12-21T17:21:44.027Z,1.88
2023-12-21T17:24:11.053Z,1.77
2023-12-21T17:26:38.066Z,2.13
2023-12-21T17:29:04.857Z,2.63
2023-12-21T17:31:31.993Z,1.95
2023-12-21T17:34:00.086Z,2.50
2023-12-21T17:36:29.152Z,2.25
2023-12-21T17:41:26.243Z,2.47
2023-12-21T17:43:53.060Z,3.10
2023-12-21T17:46:23.145Z,2.22
2023-12-21T17:48:52.838Z,2.92
2023-12-21T17:51:19.812Z,2.70
2023-12-21T17:53:48.038Z,3.65
2023-12-21T18:01:09.475Z,4.10
2023-12-21T18:03:37.545Z,4.57
2023-12-21T18:06:04.573Z,2.22
2023-12-21T18:08:31.571Z,3.90
2023-12-21T18:10:59.897Z,2.45
2023-12-21T18:13:27.170Z,3.50
2023-12-21T18:15:53.955Z,5.20
2023-12-21T18:18:21.652Z,2.30
2023-12-21T18:20:50.495Z,2.58
2023-12-21T18:23:17.315Z,3.70
2023-12-21T18:25:44.495Z,2.85
2023-12-21T18:28:12.789Z,3.20
2023-12-21T18:30:39.748Z,2.35
2023-12-21T18:33:06.773Z,2.00
2023-12-21T18:35:33.738Z,1.85
2023-12-21T18:38:00.871Z,3.10
2023-12-21T18:40:28.784Z,2.65
2023-12-21T18:42:55.846Z,3.78
2023-12-21T18:45:24.237Z,2.80
2023-12-21T18:47:51.506Z,2.80
2023-12-21T18:50:18.617Z,2.58
2023-12-21T18:52:45.899Z,2.60
2023-12-21T18:55:16.464Z,1.70
2023-12-21T18:57:43.390Z,2.88
2023-12-21T19:00:13.333Z,3.22
2023-12-21T19:02:42.837Z,2.55
2023-12-21T19:05:11.968Z,2.08
2023-12-21T19:07:42.552Z,2.80
2023-12-21T19:10:10.608Z,1.95
2023-12-21T19:15:10.895Z,3.00
2023-12-21T19:17:40.814Z,2.58
2023-12-21T19:20:09.479Z,3.33
2023-12-21T19:22:38.632Z,2.03
2023-12-21T19:25:05.957Z,2.50
2023-12-21T19:27:33.738Z,1.77
2023-12-21T19:30:03.956Z,1.98
2023-12-21T19:32:31.005Z,2.25
2023-12-21T19:34:58.481Z,2.90
2023-12-21T19:37:27.922Z,1.95
2023-12-21T19:39:56.875Z,1.75
2023-12-21T19:42:23.872Z,1.73
2023-12-21T19:44:53.819Z,1.85
2023-12-21T19:47:20.843Z,2.53
2023-12-21T19:49:50.836Z,2.38
2023-12-21T19:52:20.360Z,2.75
2023-12-21T19:54:50.104Z,3.38
2023-12-21T19:57:17.152Z,2.33
2023-12-21T19:59:43.869Z,2.75
2023-12-21T20:02:12.221Z,1.85
2023-12-21T20:04:41.955Z,2.35
2023-12-21T20:07:09.106Z,2.28
2023-12-21T20:09:36.002Z,2.38
2023-12-21T20:12:05.735Z,2.03
2023-12-21T20:14:33.159Z,1.77
2023-12-21T20:17:00.170Z,2.28
2023-12-21T20:19:28.108Z,1.80
2023-12-21T20:24:22.778Z,2.45
2023-12-21T20:26:49.778Z,2.70
2023-12-21T20:29:18.495Z,2.70
2023-12-21T20:31:45.837Z,1.92
2023-12-21T20:34:13.556Z,2.38
2023-12-21T20:36:41.052Z,2.40
2023-12-21T20:39:09.975Z,1.98
2023-12-21T20:41:37.097Z,2.05
2023-12-21T20:44:04.044Z,1.83
2023-12-21T20:46:32.211Z,2.63
2023-12-21T20:49:02.624Z,2.15
2023-12-21T20:51:32.886Z,1.20
2023-12-21T20:54:00.549Z,1.48
2023-12-21T20:56:28.316Z,1.15
2023-12-21T20:58:55.386Z,0.50
2023-12-21T21:01:22.615Z,1.10
2023-12-21T21:03:51.979Z,1.60
2023-12-21T21:06:18.897Z,2.28
2023-12-21T21:08:46.248Z,2.05
2023-12-21T21:11:13.233Z,1.55
2023-12-21T21:13:41.237Z,1.55
2023-12-21T21:16:08.310Z,1.42
2023-12-21T21:18:38.885Z,1.77
2023-12-21T21:21:08.595Z,2.13
2023-12-21T21:23:35.793Z,1.73
2023-12-21T21:26:07.180Z,2.05
2023-12-21T21:28:37.032Z,2.28
2023-12-21T21:31:03.898Z,2.60
2023-12-21T21:33:30.696Z,2.25
2023-12-21T21:35:57.698Z,1.23
2023-12-21T21:38:26.354Z,1.98
2023-12-21T21:40:58.949Z,2.58
2023-12-21T21:43:28.417Z,1.83
2023-12-21T21:45:55.499Z,2.80
2023-12-21T21:48:25.585Z,1.75
2023-12-21T21:50:55.258Z,2.15
2023-12-21T21:53:24.950Z,1.63
2023-12-21T21:55:53.650Z,2.05
2023-12-21T21:58:20.822Z,2.80
2023-12-21T22:00:48.272Z,2.17
2023-12-21T22:03:15.381Z,2.08
2023-12-21T22:05:46.092Z,2.10
2023-12-21T22:08:17.352Z,3.97
2023-12-21T22:10:44.384Z,3.22
2023-12-21T22:13:12.760Z,2.10
2023-12-21T22:15:39.406Z,2.47
2023-12-21T22:18:07.704Z,1.58
2023-12-21T22:20:35.500Z,2.13
2023-12-21T22:23:08.571Z,1.50
2023-12-21T22:25:35.383Z,1.20
2023-12-21T22:28:02.521Z,1.80
2023-12-21T22:30:34.495Z,1.38
2023-12-21T22:33:03.756Z,2.00
2023-12-21T22:35:33.850Z,1.60
2023-12-21T22:38:00.915Z,1.75
2023-12-21T22:40:29.086Z,1.75
2023-12-21T22:42:55.954Z,1.80
2023-12-21T22:45:22.846Z,3.00
2023-12-21T22:47:51.670Z,2.88
2023-12-21T22:50:19.445Z,2.35
2023-12-21T22:52:48.910Z,1.83
2023-12-21T22:55:15.696Z,2.00
2023-12-21T22:57:42.556Z,1.98
2023-12-21T23:00:20.169Z,2.05
2023-12-21T23:02:49.592Z,1.80
2023-12-21T23:05:18.027Z,1.60
2023-12-21T23:07:47.124Z,3.38
2023-12-21T23:10:14.489Z,2.05
2023-12-21T23:12:48.665Z,2.13
2023-12-21T23:15:18.737Z,1.52
2023-12-21T23:17:45.844Z,2.13
2023-12-21T23:20:13.268Z,2.60
2023-12-21T23:22:41.819Z,3.10
2023-12-21T23:25:19.328Z,2.20
2023-12-21T23:27:46.603Z,2.08
2023-12-21T23:30:14.128Z,1.48
2023-12-21T23:32:41.139Z,1.88
2023-12-21T23:35:16.793Z,2.42
2023-12-21T23:37:47.874Z,2.30
2023-12-21T23:40:56.524Z,2.75
2023-12-21T23:43:24.072Z,2.22
2023-12-21T23:45:55.626Z,2.70
2023-12-21T23:48:25.628Z,2.35
2023-12-21T23:50:52.490Z,2.80
2023-12-21T23:53:20.796Z,1.60
2023-12-21T23:58:14.688Z,1.33
